createdAt,value
2023-02-19T00:07:45.955Z,260
2023-02-19T00:27:46.031Z,260
2023-02-19T00:47:46.084Z,259
2023-02-19T01:07:46.069Z,259
2023-02-19T01:27:46.080Z,260
2023-02-19T01:47:46.111Z,261
2023-02-19T02:07:46.095Z,264
2023-02-19T02:27:46.131Z,267
2023-02-19T02:47:46.182Z,268
2023-02-19T03:07:46.200Z,273
2023-02-19T03:27:46.244Z,279
2023-02-19T03:47:46.249Z,284
2023-02-19T04:07:46.292Z,284
2023-02-19T04:27:46.298Z,292
2023-02-19T04:47:46.318Z,302
2023-02-19T05:07:46.344Z,305
2023-02-19T05:27:46.354Z,314
2023-02-19T05:47:46.392Z,315
2023-02-19T06:07:46.475Z,315
2023-02-19T06:27:46.447Z,320
2023-02-19T06:47:46.452Z,330
2023-02-19T07:07:46.495Z,334
2023-02-19T07:27:46.521Z,346
2023-02-19T08:07:46.572Z,370
2023-02-19T08:27:46.596Z,382
2023-02-19T08:47:46.588Z,388
2023-02-19T09:07:46.624Z,396
2023-02-19T09:27:46.672Z,398
2023-02-19T09:47:46.671Z,396
2023-02-19T10:07:46.707Z,396
2023-02-19T10:27:46.728Z,395
2023-02-19T10:47:46.760Z,399
2023-02-19T11:07:46.776Z,393
2023-02-19T11:27:46.797Z,392
2023-02-19T11:47:46.831Z,382
2023-02-19T12:07:46.847Z,383
2023-02-19T12:27:46.937Z,376
2023-02-19T12:47:46.887Z,362
2023-02-19T13:07:46.907Z,366
2023-02-19T13:47:46.961Z,371
2023-02-19T14:07:46.993Z,370
2023-02-19T14:27:46.652Z,364
2023-02-19T14:47:47.046Z,360
2023-02-19T15:07:46.871Z,364
2023-02-19T15:27:47.080Z,361
2023-02-19T15:47:47.114Z,365
2023-02-19T16:07:47.119Z,356
2023-02-19T16:27:47.167Z,360
2023-02-19T16:47:47.283Z,360
2023-02-19T17:07:47.182Z,353
2023-02-19T17:27:47.200Z,357
2023-02-19T17:47:47.248Z,358
2023-02-19T18:07:47.284Z,359
2023-02-19T18:47:47.342Z,354
2023-02-19T19:07:47.353Z,348
2023-02-19T19:27:47.421Z,339
2023-02-19T19:47:47.415Z,348
2023-02-19T20:07:47.463Z,348
2023-02-19T20:27:47.469Z,347
2023-02-19T20:47:47.474Z,344
2023-02-19T21:07:47.507Z,344
2023-02-19T21:27:47.566Z,341
2023-02-19T21:47:47.586Z,342
2023-02-19T22:07:47.828Z,339
2023-02-19T22:27:47.621Z,340
2023-02-19T22:47:47.654Z,337
2023-02-19T23:07:47.700Z,339
2023-02-19T23:27:47.708Z,341
2023-02-19T23:47:47.729Z,341
